createdAt,value
2023-05-02T00:00:40.380Z,26.45
2023-05-02T00:01:40.410Z,26.45
2023-05-02T00:02:40.511Z,26.45
2023-05-02T00:03:40.415Z,26.45
2023-05-02T00:04:40.444Z,26.42
2023-05-02T00:05:40.339Z,26.44
2023-05-02T00:06:40.426Z,26.45
2023-05-02T00:07:40.326Z,26.44
2023-05-02T00:08:40.399Z,26.44
2023-05-02T00:09:40.335Z,26.46
2023-05-02T00:10:40.379Z,26.44
2023-05-02T00:11:40.343Z,26.44
2023-05-02T00:12:40.344Z,26.46
2023-05-02T00:13:40.345Z,26.45
2023-05-02T00:14:40.323Z,26.45
2023-05-02T00:15:40.330Z,26.44
2023-05-02T00:16:40.362Z,26.45
2023-05-02T00:17:40.384Z,26.44
2023-05-02T00:18:40.329Z,26.45
2023-05-02T00:19:40.341Z,26.46
2023-05-02T00:20:40.329Z,26.45
2023-05-02T00:21:40.319Z,26.44
2023-05-02T00:22:40.306Z,26.45
2023-05-02T00:23:40.310Z,26.42
2023-05-02T00:24:40.306Z,26.45
2023-05-02T00:25:40.320Z,26.46
2023-05-02T00:26:40.299Z,26.45
2023-05-02T00:27:40.286Z,26.44
2023-05-02T00:28:40.315Z,26.45
2023-05-02T00:29:40.284Z,26.42
2023-05-02T00:30:40.296Z,26.42
2023-05-02T00:31:40.377Z,26.46
2023-05-02T00:32:40.324Z,26.45
2023-05-02T00:33:40.280Z,26.44
2023-05-02T00:34:40.267Z,26.42
2023-05-02T00:35:40.275Z,26.42
2023-05-02T00:36:40.278Z,26.44
2023-05-02T00:37:40.282Z,26.44
2023-05-02T00:38:40.258Z,26.44
2023-05-02T00:39:40.260Z,26.44
2023-05-02T00:40:40.270Z,26.42
2023-05-02T00:41:40.297Z,26.42
2023-05-02T00:42:40.275Z,26.45
2023-05-02T00:43:40.247Z,26.41
2023-05-02T00:44:40.278Z,26.44
2023-05-02T00:45:40.253Z,26.45
2023-05-02T00:46:40.280Z,26.45
2023-05-02T00:47:40.282Z,26.44
2023-05-02T00:48:40.272Z,26.44
2023-05-02T00:49:40.277Z,26.41
2023-05-02T00:50:40.261Z,26.44
2023-05-02T00:51:40.294Z,26.44
2023-05-02T00:52:40.268Z,26.42
2023-05-02T00:53:40.247Z,26.44
2023-05-02T00:54:40.264Z,26.42
2023-05-02T00:55:40.272Z,26.41
2023-05-02T00:56:40.260Z,26.42
2023-05-02T00:57:40.241Z,26.41
2023-05-02T00:58:40.246Z,26.44
2023-05-02T00:59:40.235Z,26.42
2023-05-02T01:00:40.221Z,26.42
2023-05-02T01:01:40.275Z,26.41
2023-05-02T01:02:40.260Z,26.42
2023-05-02T01:03:40.303Z,26.42
2023-05-02T01:04:40.220Z,26.42
2023-05-02T01:05:40.207Z,26.42
2023-05-02T01:06:40.300Z,26.41
2023-05-02T01:07:40.201Z,26.41
2023-05-02T01:08:40.206Z,26.42
2023-05-02T01:09:40.217Z,26.44
2023-05-02T01:10:40.213Z,26.41
2023-05-02T01:11:40.225Z,26.41
2023-05-02T01:12:40.205Z,26.42
2023-05-02T01:13:40.199Z,26.42
2023-05-02T01:14:40.213Z,26.44
2023-05-02T01:15:40.239Z,26.41
2023-05-02T01:16:40.357Z,26.44
2023-05-02T01:17:40.236Z,26.44
2023-05-02T01:18:40.172Z,26.42
2023-05-02T01:19:40.183Z,26.44
2023-05-02T01:20:40.184Z,26.42
2023-05-02T01:21:40.241Z,26.41
2023-05-02T01:22:40.173Z,26.39
2023-05-02T01:23:40.155Z,26.44
2023-05-02T01:24:40.174Z,26.44
2023-05-02T01:25:40.158Z,26.42
2023-05-02T01:26:40.174Z,26.42
2023-05-02T01:27:40.164Z,26.41
2023-05-02T01:28:40.156Z,26.39
2023-05-02T01:29:40.144Z,26.42
2023-05-02T01:30:40.132Z,26.44
2023-05-02T01:31:40.270Z,26.39
2023-05-02T01:32:40.195Z,26.44
2023-05-02T01:33:40.148Z,26.42
2023-05-02T01:34:40.134Z,26.42
2023-05-02T01:35:40.141Z,26.41
2023-05-02T01:36:40.124Z,26.39
2023-05-02T01:37:40.123Z,26.39
2023-05-02T01:38:40.123Z,26.41
2023-05-02T01:39:40.125Z,26.41
2023-05-02T01:40:40.131Z,26.39
2023-05-02T01:41:40.136Z,26.39
2023-05-02T01:42:40.118Z,26.42
2023-05-02T01:43:40.099Z,26.39
2023-05-02T01:44:40.099Z,26.41
2023-05-02T01:45:40.110Z,26.41
2023-05-02T01:46:40.210Z,26.39
2023-05-02T01:47:40.142Z,26.41
2023-05-02T01:48:40.079Z,26.42
2023-05-02T01:49:40.087Z,26.42
2023-05-02T01:50:40.085Z,26.38
2023-05-02T01:51:40.065Z,26.42
2023-05-02T01:52:40.058Z,26.39
2023-05-02T01:53:40.104Z,26.41
2023-05-02T01:54:40.079Z,26.41
2023-05-02T01:55:40.081Z,26.39
2023-05-02T01:56:40.069Z,26.39
2023-05-02T01:57:40.078Z,26.42
2023-05-02T01:58:40.065Z,26.38
2023-05-02T01:59:40.075Z,26.41
2023-05-02T02:00:40.086Z,26.38
2023-05-02T02:01:40.212Z,26.41
2023-05-02T02:02:40.073Z,26.41
2023-05-02T02:03:40.158Z,26.39
2023-05-02T02:04:40.323Z,26.39
2023-05-02T02:05:40.065Z,26.41
2023-05-02T02:06:40.117Z,26.39
2023-05-02T02:07:40.081Z,26.38
2023-05-02T02:08:40.104Z,26.42
2023-05-02T02:09:40.100Z,26.39
2023-05-02T02:10:40.065Z,26.42
2023-05-02T02:11:40.057Z,26.38
2023-05-02T02:12:40.076Z,26.41
2023-05-02T02:13:40.092Z,26.39
2023-05-02T02:14:40.096Z,26.39
2023-05-02T02:15:40.075Z,26.39
2023-05-02T02:16:40.129Z,26.41
2023-05-02T02:17:40.108Z,26.39
2023-05-02T02:18:40.087Z,26.42
2023-05-02T02:19:40.106Z,26.39
2023-05-02T02:20:40.091Z,26.39
2023-05-02T02:21:40.093Z,26.39
2023-05-02T02:22:40.091Z,26.38
2023-05-02T02:23:40.096Z,26.37
2023-05-02T02:24:40.080Z,26.38
2023-05-02T02:25:40.085Z,26.39
2023-05-02T02:26:40.093Z,26.38
2023-05-02T02:27:40.088Z,26.38
2023-05-02T02:28:40.096Z,26.39
2023-05-02T02:29:40.111Z,26.38
2023-05-02T02:30:40.199Z,26.38
2023-05-02T02:31:40.114Z,26.37
2023-05-02T02:32:40.144Z,26.39
2023-05-02T02:33:40.185Z,26.39
2023-05-02T02:34:40.112Z,26.39
2023-05-02T02:35:40.086Z,26.39
2023-05-02T02:36:40.113Z,26.41
2023-05-02T02:37:40.099Z,26.41
2023-05-02T02:38:40.084Z,26.38
2023-05-02T02:39:40.084Z,26.39
2023-05-02T02:40:40.085Z,26.41
2023-05-02T02:41:40.077Z,26.38
2023-05-02T02:42:40.129Z,26.38
2023-05-02T02:43:40.084Z,26.39
2023-05-02T02:44:40.086Z,26.37
2023-05-02T02:45:40.096Z,26.37
2023-05-02T02:46:40.160Z,26.37
2023-05-02T02:47:40.140Z,26.39
2023-05-02T02:48:40.107Z,26.38
2023-05-02T02:49:40.093Z,26.37
2023-05-02T02:50:40.103Z,26.38
2023-05-02T02:51:40.114Z,26.37
2023-05-02T02:52:40.078Z,26.35
2023-05-02T02:53:40.156Z,26.39
2023-05-02T02:54:40.093Z,26.37
2023-05-02T02:55:40.103Z,26.39
2023-05-02T02:56:40.096Z,26.37
2023-05-02T02:57:40.068Z,26.38
2023-05-02T02:58:40.085Z,26.38
2023-05-02T02:59:40.092Z,26.39
2023-05-02T03:00:40.089Z,26.37
2023-05-02T03:01:40.166Z,26.37
2023-05-02T03:02:40.103Z,26.39
2023-05-02T03:03:40.092Z,26.37
2023-05-02T03:04:40.106Z,26.37
2023-05-02T03:05:40.066Z,26.38
2023-05-02T03:06:40.110Z,26.37
2023-05-02T03:07:40.100Z,26.37
2023-05-02T03:08:40.085Z,26.35
2023-05-02T03:09:40.135Z,26.37
2023-05-02T03:10:40.073Z,26.37
2023-05-02T03:11:40.104Z,26.39
2023-05-02T03:12:40.197Z,26.39
2023-05-02T03:13:40.067Z,26.37
2023-05-02T03:14:40.129Z,26.37
2023-05-02T03:15:40.112Z,26.37
2023-05-02T03:16:40.198Z,26.38
2023-05-02T03:17:40.134Z,26.37
2023-05-02T03:18:40.082Z,26.37
2023-05-02T03:19:40.112Z,26.38
2023-05-02T03:20:40.099Z,26.37
2023-05-02T03:21:40.102Z,26.37
2023-05-02T03:22:40.100Z,26.34
2023-05-02T03:23:40.092Z,26.37
2023-05-02T03:24:40.112Z,26.34
2023-05-02T03:25:40.131Z,26.38
2023-05-02T03:26:40.116Z,26.37
2023-05-02T03:27:40.105Z,26.35
2023-05-02T03:28:40.105Z,26.35
2023-05-02T03:29:40.088Z,26.38
2023-05-02T03:30:40.096Z,26.35
2023-05-02T03:31:40.147Z,26.38
2023-05-02T03:32:40.123Z,26.35
2023-05-02T03:33:40.109Z,26.35
2023-05-02T03:34:40.130Z,26.37
2023-05-02T03:35:40.118Z,26.37
2023-05-02T03:36:40.127Z,26.37
2023-05-02T03:37:40.134Z,26.37
2023-05-02T03:38:40.132Z,26.38
2023-05-02T03:39:40.146Z,26.37
2023-05-02T03:40:40.168Z,26.38
2023-05-02T03:41:40.160Z,26.35
2023-05-02T03:42:40.153Z,26.38
2023-05-02T03:43:40.149Z,26.37
2023-05-02T03:44:40.175Z,26.37
2023-05-02T03:45:40.169Z,26.34
2023-05-02T03:46:40.211Z,26.35
2023-05-02T03:47:40.245Z,26.35
2023-05-02T03:48:40.192Z,26.35
2023-05-02T03:49:40.191Z,26.35
2023-05-02T03:50:40.184Z,26.37
2023-05-02T03:51:40.193Z,26.35
2023-05-02T03:52:40.194Z,26.35
2023-05-02T03:53:40.193Z,26.37
2023-05-02T03:54:40.218Z,26.37
2023-05-02T03:55:40.198Z,26.37
2023-05-02T03:56:42.654Z,26.37
2023-05-02T03:57:40.390Z,26.34
2023-05-02T03:58:40.395Z,26.37
2023-05-02T03:59:40.386Z,26.37
2023-05-02T04:00:40.422Z,26.35
2023-05-02T04:01:40.464Z,26.35
2023-05-02T04:02:40.606Z,26.35
2023-05-02T04:03:40.557Z,26.35
2023-05-02T04:04:40.489Z,26.38
2023-05-02T04:05:40.425Z,26.37
2023-05-02T04:06:40.541Z,26.37
2023-05-02T04:07:40.467Z,26.38
2023-05-02T04:08:40.467Z,26.34
2023-05-02T04:09:40.470Z,26.34
2023-05-02T04:10:40.479Z,26.35
2023-05-02T04:11:40.476Z,26.32
2023-05-02T04:12:40.503Z,26.35
2023-05-02T04:13:40.491Z,26.35
2023-05-02T04:14:40.511Z,26.35
2023-05-02T04:15:40.481Z,26.35
2023-05-02T04:16:40.532Z,26.35
2023-05-02T04:17:40.541Z,26.34
2023-05-02T04:18:40.527Z,26.37
2023-05-02T04:19:40.530Z,26.37
2023-05-02T04:20:40.534Z,26.35
2023-05-02T04:21:40.543Z,26.35
2023-05-02T04:22:40.541Z,26.37
2023-05-02T04:23:40.554Z,26.38
2023-05-02T04:24:40.584Z,26.34
2023-05-02T04:25:40.562Z,26.37
2023-05-02T04:26:40.568Z,26.32
2023-05-02T04:27:40.564Z,26.37
2023-05-02T04:28:40.585Z,26.38
2023-05-02T04:29:40.597Z,26.32
2023-05-02T04:30:40.634Z,26.32
2023-05-02T04:31:40.590Z,26.38
2023-05-02T04:32:40.625Z,26.37
2023-05-02T04:33:40.610Z,26.35
2023-05-02T04:34:40.613Z,26.37
2023-05-02T04:35:40.623Z,26.37
2023-05-02T04:36:40.621Z,26.35
2023-05-02T04:37:40.634Z,26.35
2023-05-02T04:38:40.651Z,26.37
2023-05-02T04:39:40.661Z,26.35
2023-05-02T04:40:40.639Z,26.38
2023-05-02T04:41:40.656Z,26.38
2023-05-02T04:42:40.650Z,26.35
2023-05-02T04:43:40.661Z,26.37
2023-05-02T04:44:40.673Z,26.37
2023-05-02T04:45:40.663Z,26.35
2023-05-02T04:46:40.705Z,26.35
2023-05-02T04:47:40.713Z,26.37
2023-05-02T04:48:40.678Z,26.35
2023-05-02T04:49:40.672Z,26.38
2023-05-02T04:50:40.667Z,26.38
2023-05-02T04:51:40.671Z,26.34
2023-05-02T04:52:40.697Z,26.37
2023-05-02T04:53:40.689Z,26.35
2023-05-02T04:54:40.700Z,26.35
2023-05-02T04:55:40.701Z,26.35
2023-05-02T04:56:40.703Z,26.37
2023-05-02T04:57:40.687Z,26.37
2023-05-02T04:58:40.695Z,26.37
2023-05-02T04:59:40.715Z,26.34
2023-05-02T05:00:40.751Z,26.35
2023-05-02T05:01:40.809Z,26.35
2023-05-02T05:02:40.796Z,26.38
2023-05-02T05:03:40.818Z,26.38
2023-05-02T05:04:40.732Z,26.41
2023-05-02T05:05:40.850Z,26.41
2023-05-02T05:06:40.777Z,26.39
2023-05-02T05:07:40.726Z,26.38
2023-05-02T05:08:40.733Z,26.42
2023-05-02T05:09:40.734Z,26.42
2023-05-02T05:10:40.761Z,26.42
2023-05-02T05:11:40.700Z,26.45
2023-05-02T05:12:40.706Z,26.48
2023-05-02T05:13:40.708Z,26.51
2023-05-02T05:14:40.756Z,26.51
2023-05-02T05:15:40.712Z,26.49
2023-05-02T05:16:40.765Z,26.49
2023-05-02T05:17:40.788Z,26.54
2023-05-02T05:18:40.861Z,26.54
2023-05-02T05:19:40.718Z,26.51
2023-05-02T05:20:40.707Z,26.54
2023-05-02T05:21:40.716Z,26.54
2023-05-02T05:22:40.742Z,26.58
2023-05-02T05:23:40.807Z,26.56
2023-05-02T05:24:40.789Z,26.58
2023-05-02T05:25:41.248Z,26.59
2023-05-02T05:26:40.872Z,26.60
2023-05-02T05:27:40.906Z,26.62
2023-05-02T05:28:40.904Z,26.59
2023-05-02T05:29:40.931Z,26.58
2023-05-02T05:30:40.902Z,26.59
2023-05-02T05:31:40.997Z,26.60
2023-05-02T05:32:41.034Z,26.60
2023-05-02T05:33:40.989Z,26.60
2023-05-02T05:34:40.985Z,26.65
2023-05-02T05:35:41.025Z,26.66
2023-05-02T05:36:41.086Z,26.66
2023-05-02T05:37:41.120Z,26.71
2023-05-02T05:38:41.187Z,26.74
2023-05-02T05:39:41.259Z,26.78
2023-05-02T05:40:41.324Z,26.76
2023-05-02T05:41:41.382Z,26.85
2023-05-02T05:42:41.412Z,26.90
2023-05-02T05:43:41.470Z,26.95
2023-05-02T05:44:41.530Z,26.98
2023-05-02T05:45:41.604Z,27.00
2023-05-02T05:46:41.687Z,27.06
2023-05-02T05:47:41.698Z,27.10
2023-05-02T05:48:41.692Z,27.10
2023-05-02T05:49:42.121Z,27.14
2023-05-02T05:50:41.785Z,27.19
2023-05-02T05:51:41.806Z,27.20
2023-05-02T05:52:41.824Z,27.22
2023-05-02T05:53:41.839Z,27.26
2023-05-02T05:54:41.881Z,27.26
2023-05-02T05:55:42.446Z,27.28
2023-05-02T05:56:41.966Z,27.30
2023-05-02T05:57:41.963Z,27.32
2023-05-02T05:58:42.000Z,27.34
2023-05-02T05:59:41.987Z,27.34
2023-05-02T06:00:42.016Z,27.36
2023-05-02T06:01:42.042Z,27.39
2023-05-02T06:02:42.128Z,27.40
2023-05-02T06:03:42.150Z,27.39
2023-05-02T06:04:42.145Z,27.42
2023-05-02T06:05:42.096Z,27.47
2023-05-02T06:06:42.197Z,27.46
2023-05-02T06:07:42.135Z,27.44
2023-05-02T06:08:42.143Z,27.47
2023-05-02T06:09:42.176Z,27.49
2023-05-02T06:10:42.191Z,27.52
2023-05-02T06:11:42.239Z,27.49
2023-05-02T06:12:42.641Z,27.49
2023-05-02T06:13:42.236Z,27.53
2023-05-02T06:14:42.292Z,27.52
2023-05-02T06:15:42.320Z,27.49
2023-05-02T06:16:42.629Z,27.49
2023-05-02T06:17:42.649Z,27.50
2023-05-02T06:18:42.351Z,27.52
2023-05-02T06:19:42.374Z,27.50
2023-05-02T06:20:42.373Z,27.52
2023-05-02T06:21:42.413Z,27.50
2023-05-02T06:22:42.443Z,27.50
2023-05-02T06:23:42.469Z,27.50
2023-05-02T06:24:42.479Z,27.50
2023-05-02T06:25:42.551Z,27.52
2023-05-02T06:26:42.514Z,27.54
2023-05-02T06:27:42.532Z,27.50
2023-05-02T06:28:42.565Z,27.49
2023-05-02T06:29:42.609Z,27.47
2023-05-02T06:30:42.597Z,27.44
2023-05-02T06:31:42.673Z,27.46
2023-05-02T06:32:43.168Z,27.44
2023-05-02T06:33:42.699Z,27.50
2023-05-02T06:34:43.119Z,27.50
2023-05-02T06:35:42.700Z,27.50
2023-05-02T06:36:42.748Z,27.56
2023-05-02T06:37:42.827Z,27.52
2023-05-02T06:38:42.772Z,27.53
2023-05-02T06:39:43.162Z,27.52
2023-05-02T06:40:42.832Z,27.49
2023-05-02T06:41:42.895Z,27.43
2023-05-02T06:42:42.944Z,27.40
2023-05-02T06:43:42.941Z,27.36
2023-05-02T06:44:43.121Z,27.36
2023-05-02T06:45:43.047Z,27.30
2023-05-02T06:46:43.143Z,27.26
2023-05-02T06:47:43.665Z,27.26
2023-05-02T06:48:43.193Z,27.22
2023-05-02T06:49:43.258Z,27.19
2023-05-02T06:50:43.299Z,27.16
2023-05-02T06:51:43.372Z,27.13
2023-05-02T06:52:43.449Z,27.10
2023-05-02T06:53:43.506Z,27.06
2023-05-02T06:54:43.639Z,27.06
2023-05-02T06:55:43.633Z,27.07
2023-05-02T06:56:43.683Z,27.06
2023-05-02T06:57:43.729Z,27.09
2023-05-02T06:58:43.802Z,27.07
2023-05-02T06:59:44.127Z,26.99
2023-05-02T07:00:43.932Z,26.90
2023-05-02T07:01:43.936Z,26.85
2023-05-02T07:02:44.133Z,26.86
2023-05-02T07:03:43.937Z,26.90
2023-05-02T07:04:44.064Z,26.89
2023-05-02T07:05:44.050Z,26.93
2023-05-02T07:06:44.105Z,26.95
2023-05-02T07:07:44.183Z,26.92
2023-05-02T07:08:44.220Z,26.95
2023-05-02T07:09:44.273Z,26.96
2023-05-02T07:10:44.386Z,26.98
2023-05-02T07:11:44.386Z,26.99
2023-05-02T07:12:44.624Z,26.99
2023-05-02T07:13:44.533Z,26.98
2023-05-02T07:14:44.638Z,26.96
2023-05-02T07:15:44.677Z,27.00
2023-05-02T07:16:44.722Z,26.98
2023-05-02T07:17:44.842Z,27.00
2023-05-02T07:18:45.009Z,27.03
2023-05-02T07:19:45.775Z,27.02
2023-05-02T07:20:44.952Z,27.05
2023-05-02T07:21:44.998Z,27.05
2023-05-02T07:22:45.160Z,27.03
2023-05-02T07:23:45.105Z,27.05
2023-05-02T07:24:45.633Z,27.03
2023-05-02T07:25:45.225Z,27.06
2023-05-02T07:26:45.271Z,26.92
2023-05-02T07:27:45.645Z,26.81
2023-05-02T07:28:45.356Z,26.90
2023-05-02T07:29:45.410Z,26.96
2023-05-02T07:30:45.560Z,27.02
2023-05-02T07:31:45.574Z,27.07
2023-05-02T07:32:45.580Z,27.12
2023-05-02T07:33:45.633Z,27.14
2023-05-02T07:34:45.657Z,27.13
2023-05-02T07:35:45.697Z,27.16
2023-05-02T07:36:45.746Z,27.20
2023-05-02T07:37:45.794Z,27.22
2023-05-02T07:38:45.831Z,27.25
2023-05-02T07:39:46.135Z,27.29
2023-05-02T07:40:45.845Z,27.32
2023-05-02T07:41:45.866Z,27.32
2023-05-02T07:42:45.899Z,27.34
2023-05-02T07:43:45.920Z,27.43
2023-05-02T07:44:45.931Z,27.46
2023-05-02T07:45:46.000Z,27.50
2023-05-02T07:46:46.064Z,27.54
2023-05-02T07:47:46.337Z,27.57
2023-05-02T07:48:45.949Z,27.63
2023-05-02T07:49:45.962Z,27.64
2023-05-02T07:50:45.949Z,27.68
2023-05-02T07:51:45.930Z,27.68
2023-05-02T07:52:45.946Z,27.68
2023-05-02T07:53:45.963Z,27.70
2023-05-02T07:54:45.930Z,27.73
2023-05-02T07:55:45.935Z,27.74
2023-05-02T07:56:45.958Z,27.75
2023-05-02T07:57:45.945Z,27.71
2023-05-02T07:58:46.000Z,27.77
2023-05-02T07:59:46.021Z,27.81
2023-05-02T08:00:45.999Z,27.83
2023-05-02T08:01:46.019Z,27.81
2023-05-02T08:02:46.126Z,27.84
2023-05-02T08:03:46.229Z,27.88
2023-05-02T08:04:46.126Z,27.88
2023-05-02T08:05:46.157Z,27.90
2023-05-02T08:06:46.285Z,27.91
2023-05-02T08:07:46.286Z,27.94
2023-05-02T08:08:46.336Z,27.93
2023-05-02T08:09:46.410Z,27.95
2023-05-02T08:10:46.670Z,27.97
2023-05-02T08:11:46.525Z,27.94
2023-05-02T08:12:46.650Z,27.91
2023-05-02T08:13:46.539Z,27.87
2023-05-02T08:14:46.569Z,27.87
2023-05-02T08:15:46.666Z,27.87
2023-05-02T08:16:46.827Z,27.83
2023-05-02T08:17:46.659Z,27.83
2023-05-02T08:18:46.585Z,27.83
2023-05-02T08:19:46.625Z,27.85
2023-05-02T08:20:46.723Z,27.77
2023-05-02T08:21:46.579Z,27.73
2023-05-02T08:22:46.690Z,27.73
2023-05-02T08:23:46.597Z,27.74
2023-05-02T08:24:46.588Z,27.79
2023-05-02T08:25:46.586Z,27.77
2023-05-02T08:26:46.608Z,27.84
2023-05-02T08:27:46.623Z,27.85
2023-05-02T08:28:46.646Z,27.90
2023-05-02T08:29:46.693Z,27.93
2023-05-02T08:30:46.728Z,27.91
2023-05-02T08:31:46.819Z,27.95
2023-05-02T08:32:46.821Z,28.01
2023-05-02T08:33:46.868Z,28.03
2023-05-02T08:34:46.974Z,28.01
2023-05-02T08:35:47.004Z,28.05
2023-05-02T08:36:47.069Z,28.07
2023-05-02T08:37:47.133Z,28.01
2023-05-02T08:38:47.224Z,28.03
2023-05-02T08:39:47.298Z,28.05
2023-05-02T08:40:47.310Z,28.08
2023-05-02T08:41:47.378Z,28.08
2023-05-02T08:42:47.669Z,28.12
2023-05-02T08:43:47.522Z,28.15
2023-05-02T08:44:47.547Z,28.18
2023-05-02T08:45:47.584Z,28.19
2023-05-02T08:46:47.738Z,28.21
2023-05-02T08:47:48.194Z,28.22
2023-05-02T08:48:47.783Z,28.22
2023-05-02T08:49:47.816Z,28.24
2023-05-02T08:50:48.221Z,28.21
2023-05-02T08:51:47.966Z,28.22
2023-05-02T08:52:47.992Z,28.19
2023-05-02T08:53:48.044Z,28.17
2023-05-02T08:54:48.107Z,28.21
2023-05-02T08:55:48.183Z,28.19
2023-05-02T08:56:48.253Z,28.17
2023-05-02T08:57:48.276Z,28.18
2023-05-02T08:58:48.345Z,28.17
2023-05-02T08:59:48.415Z,28.15
2023-05-02T09:00:48.545Z,28.17
2023-05-02T09:01:48.686Z,28.17
2023-05-02T09:02:48.619Z,28.14
2023-05-02T09:03:48.709Z,28.15
2023-05-02T09:04:48.795Z,28.17
2023-05-02T09:05:48.779Z,28.15
2023-05-02T09:06:48.909Z,28.14
2023-05-02T09:07:48.909Z,28.14
2023-05-02T09:08:48.985Z,28.14
2023-05-02T09:09:49.054Z,28.09
2023-05-02T09:10:49.258Z,28.14
2023-05-02T09:11:49.172Z,28.11
2023-05-02T09:12:49.260Z,28.09
2023-05-02T09:13:49.285Z,28.11
2023-05-02T09:14:49.344Z,28.11
2023-05-02T09:15:49.420Z,28.11
2023-05-02T09:16:49.499Z,28.11
2023-05-02T09:17:49.594Z,28.08
2023-05-02T09:18:49.592Z,28.08
2023-05-02T09:19:49.656Z,28.08
2023-05-02T09:20:49.717Z,28.09
2023-05-02T09:21:49.792Z,28.09
2023-05-02T09:22:50.183Z,28.09
2023-05-02T09:23:49.930Z,28.09
2023-05-02T09:24:49.982Z,28.11
2023-05-02T09:25:50.025Z,27.95
2023-05-02T09:26:50.063Z,28.00
2023-05-02T09:27:50.215Z,27.94
2023-05-02T09:28:50.092Z,27.91
2023-05-02T09:29:50.097Z,27.80
2023-05-02T09:30:50.274Z,27.83
2023-05-02T09:31:56.291Z,27.83
2023-05-02T09:32:51.277Z,27.84
2023-05-02T09:33:50.068Z,27.88
2023-05-02T09:34:50.078Z,27.88
2023-05-02T09:35:50.066Z,27.88
2023-05-02T09:36:50.038Z,27.79
2023-05-02T09:37:50.062Z,27.77
2023-05-02T09:38:50.084Z,27.73
2023-05-02T09:39:50.024Z,27.68
2023-05-02T09:40:50.006Z,27.63
2023-05-02T09:41:50.022Z,27.58
2023-05-02T09:42:50.034Z,27.53
2023-05-02T09:43:49.992Z,27.49
2023-05-02T09:44:50.001Z,27.49
2023-05-02T09:45:50.068Z,27.44
2023-05-02T09:46:49.979Z,27.43
2023-05-02T09:47:50.061Z,27.42
2023-05-02T09:48:50.048Z,27.39
2023-05-02T09:49:50.083Z,27.40
2023-05-02T09:50:50.134Z,27.37
2023-05-02T09:51:50.184Z,27.39
2023-05-02T09:52:50.224Z,27.37
2023-05-02T09:53:50.286Z,27.34
2023-05-02T09:54:50.312Z,27.32
2023-05-02T09:55:50.367Z,27.30
2023-05-02T09:56:50.386Z,27.30
2023-05-02T09:57:50.453Z,27.33
2023-05-02T09:58:50.486Z,27.37
2023-05-02T09:59:50.525Z,27.40
2023-05-02T10:00:50.561Z,27.44
2023-05-02T10:01:50.605Z,27.50
2023-05-02T10:02:50.621Z,27.54
2023-05-02T10:03:50.636Z,27.58
2023-05-02T10:04:50.627Z,27.63
2023-05-02T10:05:50.724Z,27.68
2023-05-02T10:06:50.768Z,27.73
2023-05-02T10:07:51.213Z,27.75
2023-05-02T10:08:50.623Z,27.81
2023-05-02T10:09:50.600Z,27.83
2023-05-02T10:10:51.210Z,27.87
2023-05-02T10:11:50.623Z,27.90
2023-05-02T10:12:50.629Z,27.90
2023-05-02T10:13:50.647Z,27.95
2023-05-02T10:14:50.668Z,27.95
2023-05-02T10:15:50.719Z,27.91
2023-05-02T10:16:50.770Z,27.95
2023-05-02T10:17:50.903Z,28.00
2023-05-02T10:18:50.858Z,28.01
2023-05-02T10:19:50.915Z,28.03
2023-05-02T10:20:50.951Z,28.00
2023-05-02T10:21:50.971Z,28.00
2023-05-02T10:22:51.021Z,27.95
2023-05-02T10:23:50.998Z,27.88
2023-05-02T10:24:50.979Z,27.87
2023-05-02T10:25:51.051Z,27.77
2023-05-02T10:26:51.043Z,27.65
2023-05-02T10:27:51.075Z,27.50
2023-05-02T10:28:51.187Z,27.46
2023-05-02T10:29:51.197Z,27.34
2023-05-02T10:30:51.242Z,27.29
2023-05-02T10:31:51.243Z,27.23
2023-05-02T10:32:51.323Z,27.19
2023-05-02T10:33:51.723Z,27.19
2023-05-02T10:34:51.384Z,27.19
2023-05-02T10:35:51.705Z,27.23
2023-05-02T10:36:51.481Z,27.28
2023-05-02T10:37:51.525Z,27.34
2023-05-02T10:38:51.576Z,27.40
2023-05-02T10:39:51.581Z,27.42
2023-05-02T10:40:51.598Z,27.43
2023-05-02T10:41:51.646Z,27.44
2023-05-02T10:42:51.629Z,27.46
2023-05-02T10:43:51.666Z,27.43
2023-05-02T10:44:51.680Z,27.47
2023-05-02T10:45:51.701Z,27.44
2023-05-02T10:46:51.777Z,27.42
2023-05-02T10:47:51.811Z,27.47
2023-05-02T10:48:51.802Z,27.49
2023-05-02T10:49:51.810Z,27.52
2023-05-02T10:50:51.879Z,27.52
2023-05-02T10:51:51.884Z,27.46
2023-05-02T10:52:51.914Z,27.43
2023-05-02T10:53:51.964Z,27.47
2023-05-02T10:54:52.005Z,27.49
2023-05-02T10:55:52.026Z,27.53
2023-05-02T10:56:52.041Z,27.52
2023-05-02T10:57:52.083Z,27.53
2023-05-02T10:58:52.116Z,27.54
2023-05-02T10:59:52.126Z,27.36
2023-05-02T11:00:52.267Z,27.32
2023-05-02T11:01:52.211Z,27.26
2023-05-02T11:02:52.325Z,27.26
2023-05-02T11:03:52.722Z,27.29
2023-05-02T11:04:52.325Z,27.29
2023-05-02T11:05:52.374Z,27.33
2023-05-02T11:06:52.386Z,27.39
2023-05-02T11:07:52.407Z,27.46
2023-05-02T11:08:52.422Z,27.52
2023-05-02T11:09:52.416Z,27.54
2023-05-02T11:10:52.725Z,27.64
2023-05-02T11:11:52.457Z,27.70
2023-05-02T11:12:52.488Z,27.68
2023-05-02T11:13:52.476Z,27.65
2023-05-02T11:14:52.455Z,27.71
2023-05-02T11:15:52.498Z,27.77
2023-05-02T11:16:52.500Z,27.81
2023-05-02T11:17:52.549Z,27.84
2023-05-02T11:18:52.482Z,27.83
2023-05-02T11:19:52.470Z,27.80
2023-05-02T11:20:52.479Z,27.75
2023-05-02T11:21:52.500Z,27.70
2023-05-02T11:22:52.549Z,27.61
2023-05-02T11:23:52.574Z,27.56
2023-05-02T11:24:52.584Z,27.44
2023-05-02T11:25:52.666Z,27.39
2023-05-02T11:26:52.721Z,27.32
2023-05-02T11:27:52.740Z,27.26
2023-05-02T11:28:52.812Z,27.20
2023-05-02T11:29:52.889Z,27.17
2023-05-02T11:30:52.925Z,27.09
2023-05-02T11:31:53.034Z,27.09
2023-05-02T11:32:53.079Z,27.03
2023-05-02T11:33:53.103Z,27.02
2023-05-02T11:34:53.142Z,26.96
2023-05-02T11:35:53.156Z,26.93
2023-05-02T11:36:53.208Z,26.83
2023-05-02T11:37:53.239Z,26.75
2023-05-02T11:38:53.224Z,26.42
2023-05-02T11:39:53.253Z,25.91
2023-05-02T11:40:53.254Z,25.61
2023-05-02T11:41:53.268Z,25.67
2023-05-02T11:42:53.345Z,25.63
2023-05-02T11:43:53.392Z,25.60
2023-05-02T11:44:53.394Z,25.64
2023-05-02T11:45:53.466Z,25.67
2023-05-02T11:46:53.455Z,25.73
2023-05-02T11:47:53.508Z,25.81
2023-05-02T11:48:53.528Z,25.91
2023-05-02T11:49:53.525Z,25.98
2023-05-02T11:50:53.570Z,26.04
2023-05-02T11:51:53.559Z,26.13
2023-05-02T11:52:53.583Z,26.18
2023-05-02T11:53:53.609Z,26.25
2023-05-02T11:54:53.593Z,26.32
2023-05-02T11:55:53.616Z,26.41
2023-05-02T11:56:53.590Z,26.44
2023-05-02T11:57:53.624Z,26.51
2023-05-02T11:58:53.665Z,26.59
2023-05-02T11:59:53.730Z,26.63
2023-05-02T12:00:53.793Z,26.69
2023-05-02T12:01:53.854Z,26.74
2023-05-02T12:02:53.988Z,26.78
2023-05-02T12:03:54.091Z,26.82
2023-05-02T12:04:54.040Z,26.88
2023-05-02T12:05:54.217Z,26.90
2023-05-02T12:06:54.149Z,26.95
2023-05-02T12:07:54.190Z,26.96
2023-05-02T12:08:54.262Z,27.02
2023-05-02T12:09:54.280Z,27.03
2023-05-02T12:10:54.324Z,27.07
2023-05-02T12:11:54.369Z,27.09
2023-05-02T12:12:54.427Z,27.10
2023-05-02T12:13:54.485Z,27.12
2023-05-02T12:14:54.504Z,27.13
2023-05-02T12:15:54.730Z,27.16
2023-05-02T12:16:54.574Z,27.16
2023-05-02T12:17:54.751Z,27.17
2023-05-02T12:18:54.666Z,27.22
2023-05-02T12:19:54.724Z,27.25
2023-05-02T12:20:54.744Z,27.23
2023-05-02T12:21:54.800Z,27.26
2023-05-02T12:22:54.831Z,27.25
2023-05-02T12:23:54.868Z,27.28
2023-05-02T12:24:54.917Z,27.28
2023-05-02T12:25:54.974Z,27.30
2023-05-02T12:26:54.984Z,27.30
2023-05-02T12:27:55.037Z,27.32
2023-05-02T12:28:55.164Z,27.33
2023-05-02T12:29:55.112Z,27.34
2023-05-02T12:30:55.100Z,27.33
2023-05-02T12:31:55.278Z,27.32
2023-05-02T12:32:55.209Z,27.33
2023-05-02T12:33:55.225Z,27.33
2023-05-02T12:34:55.257Z,27.34
2023-05-02T12:35:55.245Z,27.33
2023-05-02T12:36:55.278Z,27.34
2023-05-02T12:37:55.314Z,27.34
2023-05-02T12:38:55.341Z,27.37
2023-05-02T12:39:55.374Z,27.37
2023-05-02T12:40:55.405Z,27.37
2023-05-02T12:41:55.445Z,27.37
2023-05-02T12:42:55.432Z,27.39
2023-05-02T12:43:55.492Z,27.39
2023-05-02T12:44:55.504Z,27.37
2023-05-02T12:45:55.565Z,27.36
2023-05-02T12:46:55.612Z,27.37
2023-05-02T12:47:55.625Z,27.39
2023-05-02T12:48:55.630Z,27.39
2023-05-02T12:49:55.657Z,27.36
2023-05-02T12:50:55.770Z,27.34
2023-05-02T12:51:55.753Z,27.39
2023-05-02T12:52:55.764Z,27.39